Portada
METAR-TAF:

METAR-TAF

Aeroports :

Cambridge, Anglaterra

latitud: 52-12N, longitud: 000-11E, altitud: 15 m

Observació

L'informe es va fer fa 3 hores i 24 minuts, a les 16:50 UTC
Vent 5 kt del Est
Temperatura 24°C
Humitat 38%
Pressió 1021 hPa
Visibilitat 10 km o més
sense núvols per sota de 1500 mi sense presència de cumulonimbus.

METAR: EGSC 011650Z 08005KT CAVOK 24/09 Q1021

Hora: 21:14 (20:14 UTC)

Pronòstic

L'informe es va fer fa 6 hores i 17 minuts, a les 13:57 UTC
Pronòstic vàlid del 01 a les 15 UTC al 01 a les 17 UTC
Vent 10 kt del Est/Nord-Est
Visibilitat 10 km o més
sense núvols per sota de 1500 mi sense presència de cumulonimbus.

TAF: EGSC 011357Z 0115/0117 07010KT CAVOK

Observacions i pronòstics meteorològics de més de 4000 aeroports (METAR i TAF).

Les estacions disponibles són els punts grocs i vermells al mapa.

Posi el ratolí al punt desitjat per veure el nom de l'estació.

Feu clic per veure les observacions i els pronòstics meteorològics.

Per canviar el mapa: feu clic els botons verds amb una creu de color negre per apropar; al botó verd amb un guió per allunyar la imatge; o en les fletxes verdes per a mapes adjacents.


METAR-TAF: